createdAt,value
2023-01-19T00:03:06.847Z,0.12
2023-01-19T00:08:17.987Z,0.13
2023-01-19T00:13:20.008Z,0.13
2023-01-19T00:18:22.067Z,0.13
2023-01-19T00:23:24.375Z,0.14
2023-01-19T00:28:26.319Z,0.12
2023-01-19T00:33:28.760Z,0.13
2023-01-19T00:38:30.895Z,0.13
2023-01-19T00:43:32.891Z,0.11
2023-01-19T00:48:35.008Z,0.12
2023-01-19T00:53:37.012Z,0.13
2023-01-19T00:58:39.065Z,0.14
2023-01-19T01:03:41.353Z,0.14
2023-01-19T01:08:43.398Z,0.11
2023-01-19T01:13:45.364Z,0.13
2023-01-19T01:18:47.901Z,0.12
2023-01-19T01:23:49.932Z,0.13
2023-01-19T01:28:51.990Z,0.12
2023-01-19T01:33:54.033Z,0.14
2023-01-19T01:38:56.187Z,0.15
2023-01-19T01:44:00.306Z,0.14
2023-01-19T01:49:12.704Z,0.11
2023-01-19T01:54:28.073Z,0.11
2023-01-19T01:59:40.579Z,0.15
2023-01-19T02:04:49.600Z,0.16
2023-01-19T02:10:10.503Z,0.15
2023-01-19T02:15:17.693Z,0.16
2023-01-19T02:20:24.763Z,0.16
2023-01-19T02:25:27.241Z,0.17
2023-01-19T02:30:29.888Z,0.17
2023-01-19T02:35:33.250Z,0.14
2023-01-19T02:40:37.241Z,0.17
2023-01-19T02:45:40.502Z,0.13
2023-01-19T02:50:50.085Z,0.17
2023-01-19T02:56:01.681Z,0.17
2023-01-19T03:01:31.946Z,0.18
2023-01-19T03:06:39.729Z,0.19
2023-01-19T03:11:47.379Z,0.18
2023-01-19T03:16:57.764Z,0.18
2023-01-19T03:22:07.627Z,0.16
2023-01-19T03:27:18.781Z,0.16
2023-01-19T03:32:24.627Z,0.17
2023-01-19T03:37:29.870Z,0.18
2023-01-19T03:42:33.149Z,0.16
2023-01-19T03:47:36.765Z,0.18
2023-01-19T03:52:38.706Z,0.17
2023-01-19T03:57:40.908Z,0.17
2023-01-19T04:02:43.043Z,0.17
2023-01-19T04:07:45.155Z,0.17
2023-01-19T04:12:47.158Z,0.16
2023-01-19T04:17:49.161Z,0.16
2023-01-19T04:22:51.159Z,0.17
2023-01-19T04:27:53.985Z,0.19
2023-01-19T04:32:56.637Z,0.17
2023-01-19T04:37:58.654Z,0.16
2023-01-19T04:43:00.996Z,0.17
2023-01-19T04:48:07.233Z,0.17
2023-01-19T04:53:09.258Z,0.19
2023-01-19T04:58:11.327Z,0.19
2023-01-19T05:03:13.464Z,0.18
2023-01-19T05:08:15.647Z,0.19
2023-01-19T05:13:17.637Z,0.21
2023-01-19T05:18:19.674Z,0.20
2023-01-19T05:23:21.760Z,0.20
2023-01-19T05:28:23.927Z,0.20
2023-01-19T05:33:26.498Z,0.18
2023-01-19T05:38:35.143Z,0.20
2023-01-19T05:43:37.857Z,0.17
2023-01-19T05:48:40.310Z,0.20
2023-01-19T05:53:42.487Z,0.19
2023-01-19T05:58:44.593Z,0.21
2023-01-19T06:03:47.656Z,0.19
2023-01-19T06:08:49.574Z,0.22
2023-01-19T06:13:51.714Z,0.24
2023-01-19T06:18:54.062Z,0.20
2023-01-19T06:23:56.123Z,0.20
2023-01-19T06:28:58.154Z,0.24
2023-01-19T06:34:00.117Z,0.22
2023-01-19T06:39:06.252Z,0.22
2023-01-19T06:44:08.413Z,0.24
2023-01-19T06:49:10.502Z,0.21
2023-01-19T06:54:12.651Z,0.21
2023-01-19T06:59:14.893Z,0.24
2023-01-19T07:04:16.924Z,0.23
2023-01-19T07:09:20.803Z,0.24
2023-01-19T07:14:22.921Z,0.22
2023-01-19T07:19:25.126Z,0.21
2023-01-19T07:24:27.130Z,0.25
2023-01-19T07:29:29.365Z,0.24
2023-01-19T07:34:31.568Z,0.26
2023-01-19T07:39:33.552Z,0.26
2023-01-19T07:44:35.570Z,0.24
2023-01-19T07:49:37.681Z,0.27
2023-01-19T07:54:39.764Z,0.28
2023-01-19T07:59:41.890Z,0.28
2023-01-19T08:04:43.989Z,0.28
2023-01-19T08:09:46.071Z,0.27
2023-01-19T08:14:48.158Z,0.31
2023-01-19T08:19:50.146Z,0.32
2023-01-19T08:24:52.411Z,0.32
2023-01-19T08:29:54.985Z,0.32
2023-01-19T08:34:57.058Z,0.32
2023-01-19T08:39:59.249Z,0.37
2023-01-19T08:45:01.388Z,0.37
2023-01-19T08:50:03.590Z,0.37
2023-01-19T08:55:06.338Z,0.37
2023-01-19T09:00:09.445Z,0.38
2023-01-19T09:05:11.435Z,0.38
2023-01-19T09:10:13.971Z,0.42
2023-01-19T09:15:16.212Z,0.43
2023-01-19T09:20:18.403Z,0.42
2023-01-19T09:25:21.053Z,0.45
2023-01-19T09:30:23.440Z,0.44
2023-01-19T09:35:25.665Z,0.47
2023-01-19T09:40:28.322Z,0.50
2023-01-19T09:45:46.352Z,0.49
2023-01-19T09:50:49.855Z,0.52
2023-01-19T09:55:51.792Z,0.53
2023-01-19T10:01:03.152Z,0.54
2023-01-19T10:06:09.711Z,0.57
2023-01-19T10:11:52.104Z,0.57
2023-01-19T10:17:33.139Z,0.59
2023-01-19T10:22:35.531Z,0.61
2023-01-19T10:27:38.745Z,0.60
2023-01-19T10:32:40.833Z,0.65
2023-01-19T10:37:45.002Z,0.68
2023-01-19T10:42:47.065Z,0.69
2023-01-19T10:47:50.143Z,0.70
2023-01-19T10:52:53.113Z,0.73
2023-01-19T10:57:55.795Z,0.74
2023-01-19T11:02:58.041Z,0.77
2023-01-19T11:08:00.545Z,0.77
2023-01-19T11:13:12.825Z,0.78
2023-01-19T11:18:29.872Z,0.81
2023-01-19T11:23:42.254Z,0.82
2023-01-19T11:28:49.009Z,0.81
2023-01-19T11:33:53.356Z,0.85
2023-01-19T11:38:57.922Z,0.86
2023-01-19T11:44:22.447Z,0.83
2023-01-19T11:49:54.460Z,0.88
2023-01-19T11:55:12.743Z,0.91
2023-01-19T12:00:38.770Z,0.92
2023-01-19T12:05:48.123Z,0.93
2023-01-19T12:10:53.333Z,0.94
2023-01-19T12:16:13.963Z,0.96
2023-01-19T12:21:16.068Z,0.95
2023-01-19T12:26:18.097Z,0.97
2023-01-19T12:31:23.002Z,0.99
2023-01-19T12:36:31.041Z,1.00
2023-01-19T12:41:41.372Z,1.00
2023-01-19T12:46:52.550Z,1.02
2023-01-19T12:52:27.076Z,1.03
2023-01-19T12:57:57.045Z,1.04
2023-01-19T13:03:05.453Z,1.04
2023-01-19T13:08:08.181Z,1.07
2023-01-19T13:13:28.380Z,1.05
2023-01-19T13:18:35.407Z,1.07
2023-01-19T13:23:52.311Z,1.09
2023-01-19T13:29:11.397Z,1.10
2023-01-19T13:34:40.903Z,1.10
2023-01-19T13:39:45.412Z,1.11
2023-01-19T13:44:54.986Z,1.12
2023-01-19T13:49:58.756Z,1.11
2023-01-19T13:55:03.953Z,1.12
2023-01-19T14:00:17.607Z,1.11
2023-01-19T14:05:29.222Z,1.13
2023-01-19T14:10:31.817Z,1.12
2023-01-19T14:15:35.321Z,1.16
2023-01-19T14:20:37.657Z,1.14
2023-01-19T14:25:45.216Z,1.17
2023-01-19T14:30:54.951Z,1.15
2023-01-19T14:35:57.137Z,1.15
2023-01-19T14:40:59.214Z,1.17
2023-01-19T14:46:01.533Z,1.18
2023-01-19T14:51:05.681Z,1.17
2023-01-19T14:56:08.105Z,1.20
2023-01-19T15:01:10.299Z,1.17
2023-01-19T15:06:16.020Z,1.19
2023-01-19T15:11:27.057Z,1.20
2023-01-19T15:16:32.503Z,1.20
2023-01-19T15:21:34.865Z,1.20
2023-01-19T15:26:39.127Z,1.19
2023-01-19T15:31:41.543Z,1.19
2023-01-19T15:36:44.137Z,1.19
2023-01-19T15:41:46.146Z,1.20
2023-01-19T15:46:48.221Z,1.20
2023-01-19T15:51:50.387Z,1.20
2023-01-19T15:56:53.147Z,1.19
2023-01-19T16:01:55.553Z,1.21
2023-01-19T16:06:57.951Z,1.20
2023-01-19T16:12:00.048Z,1.21
2023-01-19T16:17:02.331Z,1.18
2023-01-19T16:22:05.931Z,1.17
2023-01-19T16:27:09.307Z,1.18
2023-01-19T16:32:11.374Z,1.20
2023-01-19T16:37:13.458Z,1.19
2023-01-19T16:42:16.890Z,1.19
2023-01-19T16:47:18.979Z,1.18
2023-01-19T16:52:21.117Z,1.18
2023-01-19T16:57:24.823Z,1.18
2023-01-19T17:02:27.562Z,1.19
2023-01-19T17:07:29.917Z,1.18
2023-01-19T17:12:32.400Z,1.17
2023-01-19T17:17:36.729Z,1.15
2023-01-19T17:22:39.517Z,1.16
2023-01-19T17:27:48.919Z,1.12
2023-01-19T17:32:51.541Z,1.16
2023-01-19T17:37:55.423Z,1.13
2023-01-19T17:42:57.723Z,1.16
2023-01-19T17:48:00.682Z,1.12
2023-01-19T17:53:03.929Z,1.12
2023-01-19T17:58:06.810Z,1.09
2023-01-19T18:03:11.235Z,1.14
2023-01-19T18:08:14.472Z,1.12
2023-01-19T18:13:17.345Z,1.11
2023-01-19T18:18:22.991Z,1.10
2023-01-19T18:23:32.259Z,1.10
2023-01-19T18:28:35.574Z,1.09
2023-01-19T18:33:40.151Z,1.12
2023-01-19T18:38:44.024Z,1.08
2023-01-19T18:43:57.532Z,1.11
2023-01-19T18:49:03.365Z,1.07
2023-01-19T18:54:17.665Z,1.10
2023-01-19T18:59:20.874Z,1.08
2023-01-19T19:04:29.883Z,1.09
2023-01-19T19:09:36.107Z,1.08
2023-01-19T19:14:39.467Z,1.07
2023-01-19T19:19:43.005Z,1.04
2023-01-19T19:24:46.102Z,1.07
2023-01-19T19:29:49.624Z,1.06
2023-01-19T19:35:01.356Z,1.06
2023-01-19T19:40:08.121Z,1.05
2023-01-19T19:45:20.082Z,1.07
2023-01-19T19:50:23.860Z,1.07
2023-01-19T19:55:34.120Z,1.04
2023-01-19T20:00:37.486Z,1.03
2023-01-19T20:05:45.481Z,1.05
2023-01-19T20:11:00.541Z,1.04
2023-01-19T20:16:08.446Z,1.04
2023-01-19T20:21:17.747Z,1.05
2023-01-19T20:26:26.203Z,1.04
2023-01-19T20:31:34.693Z,1.03
2023-01-19T20:42:51.334Z,1.02
2023-01-19T20:47:56.680Z,1.03
2023-01-19T20:52:59.682Z,1.03
2023-01-19T20:58:04.624Z,1.03
2023-01-19T21:03:08.097Z,1.02
2023-01-19T21:08:10.599Z,1.02
2023-01-19T21:13:14.608Z,1.02
2023-01-19T21:18:18.128Z,0.96
2023-01-19T21:23:21.090Z,0.99
2023-01-19T21:28:39.617Z,1.00
2023-01-19T21:33:45.465Z,1.00
2023-01-19T21:38:53.893Z,0.97
2023-01-19T21:44:01.537Z,1.01
2023-01-19T21:49:16.189Z,0.98
2023-01-19T21:54:27.851Z,0.99
2023-01-19T21:59:32.525Z,0.97
2023-01-19T22:04:37.304Z,0.98
2023-01-19T22:09:40.154Z,0.93
2023-01-19T22:14:44.332Z,0.94
2023-01-19T22:19:49.479Z,0.92
2023-01-19T22:24:51.655Z,0.92
2023-01-19T22:29:54.103Z,0.91
2023-01-19T22:34:56.155Z,0.93
2023-01-19T22:39:58.193Z,0.89
2023-01-19T22:45:00.272Z,0.90
2023-01-19T22:50:02.519Z,0.89
2023-01-19T22:55:04.883Z,0.88
2023-01-19T23:00:09.502Z,0.84
2023-01-19T23:05:11.748Z,0.83
2023-01-19T23:10:15.736Z,0.85
2023-01-19T23:15:18.315Z,0.84
2023-01-19T23:20:20.945Z,0.83
2023-01-19T23:25:22.955Z,0.80
2023-01-19T23:30:25.108Z,0.78
2023-01-19T23:35:27.486Z,0.78
2023-01-19T23:40:29.610Z,0.74
2023-01-19T23:45:31.908Z,0.77
2023-01-19T23:50:33.979Z,0.77
2023-01-19T23:55:36.204Z,0.73
